sensor_id;sensor_type;location;lat;lon;timestamp;P1;durP1;ratioP1;P2;durP2;ratioP2
17967;SDS011;9109;48.050;11.696;2023-02-11T04:47:27;12.20;;;4.93;;
17967;SDS011;9109;48.050;11.696;2023-02-11T04:50:29;10.20;;;4.30;;
17967;SDS011;9109;48.050;11.696;2023-02-11T04:53:31;12.13;;;4.03;;
17967;SDS011;9109;48.050;11.696;2023-02-11T04:56:33;9.30;;;3.80;;
17967;SDS011;9109;48.050;11.696;2023-02-11T04:59:35;12.73;;;4.40;;
17967;SDS011;9109;48.050;11.696;2023-02-11T05:02:38;6.67;;;3.60;;
17967;SDS011;9109;48.050;11.696;2023-02-11T05:05:40;8.17;;;3.90;;
17967;SDS011;9109;48.050;11.696;2023-02-11T05:08:43;7.47;;;4.00;;
17967;SDS011;9109;48.050;11.696;2023-02-11T05:11:45;8.73;;;3.73;;
17967;SDS011;9109;48.050;11.696;2023-02-11T05:14:46;7.07;;;3.67;;
17967;SDS011;9109;48.050;11.696;2023-02-11T05:17:50;9.40;;;4.33;;
17967;SDS011;9109;48.050;11.696;2023-02-11T05:20:52;8.17;;;3.97;;
17967;SDS011;9109;48.050;11.696;2023-02-11T05:23:53;7.93;;;3.80;;
17967;SDS011;9109;48.050;11.696;2023-02-11T05:26:55;9.30;;;3.83;;
17967;SDS011;9109;48.050;11.696;2023-02-11T05:29:57;10.57;;;4.00;;
17967;SDS011;9109;48.050;11.696;2023-02-11T05:33:00;11.07;;;3.80;;
17967;SDS011;9109;48.050;11.696;2023-02-11T05:36:03;7.97;;;3.90;;
17967;SDS011;9109;48.050;11.696;2023-02-11T05:39:07;11.87;;;5.03;;
17967;SDS011;9109;48.050;11.696;2023-02-11T05:42:09;9.47;;;3.60;;
17967;SDS011;9109;48.050;11.696;2023-02-11T05:45:11;8.67;;;3.60;;
17967;SDS011;9109;48.050;11.696;2023-02-11T05:48:14;12.80;;;3.63;;
17967;SDS011;9109;48.050;11.696;2023-02-11T05:51:16;6.77;;;3.33;;
17967;SDS011;9109;48.050;11.696;2023-02-11T05:54:18;9.37;;;3.60;;
17967;SDS011;9109;48.050;11.696;2023-02-11T05:57:20;5.83;;;3.10;;
17967;SDS011;9109;48.050;11.696;2023-02-11T06:00:22;6.57;;;3.30;;
17967;SDS011;9109;48.050;11.696;2023-02-11T06:03:26;8.10;;;3.60;;
17967;SDS011;9109;48.050;11.696;2023-02-11T06:06:28;7.07;;;3.20;;
17967;SDS011;9109;48.050;11.696;2023-02-11T06:09:29;10.50;;;3.60;;
17967;SDS011;9109;48.050;11.696;2023-02-11T06:12:31;7.23;;;3.30;;
17967;SDS011;9109;48.050;11.696;2023-02-11T06:15:33;9.13;;;3.93;;
17967;SDS011;9109;48.050;11.696;2023-02-11T06:18:37;8.07;;;3.40;;
17967;SDS011;9109;48.050;11.696;2023-02-11T06:21:39;10.83;;;4.40;;
17967;SDS011;9109;48.050;11.696;2023-02-11T06:24:40;7.30;;;3.37;;
17967;SDS011;9109;48.050;11.696;2023-02-11T06:27:42;13.27;;;3.70;;
17967;SDS011;9109;48.050;11.696;2023-02-11T06:30:44;5.87;;;3.23;;
17967;SDS011;9109;48.050;11.696;2023-02-11T06:33:47;9.27;;;4.10;;
17967;SDS011;9109;48.050;11.696;2023-02-11T06:36:49;13.63;;;4.20;;
17967;SDS011;9109;48.050;11.696;2023-02-11T06:39:54;12.33;;;3.63;;
17967;SDS011;9109;48.050;11.696;2023-02-11T06:42:56;7.20;;;3.83;;
17967;SDS011;9109;48.050;11.696;2023-02-11T06:45:58;7.90;;;3.73;;
17967;SDS011;9109;48.050;11.696;2023-02-11T06:49:01;8.33;;;3.80;;
17967;SDS011;9109;48.050;11.696;2023-02-11T06:52:03;8.33;;;3.70;;
17967;SDS011;9109;48.050;11.696;2023-02-11T06:55:05;6.43;;;3.20;;
17967;SDS011;9109;48.050;11.696;2023-02-11T06:58:07;9.10;;;4.13;;
17967;SDS011;9109;48.050;11.696;2023-02-11T07:01:09;8.50;;;3.87;;
17967;SDS011;9109;48.050;11.696;2023-02-11T07:04:14;8.40;;;3.57;;
17967;SDS011;9109;48.050;11.696;2023-02-11T07:07:16;10.70;;;4.10;;
17967;SDS011;9109;48.050;11.696;2023-02-11T07:10:18;7.13;;;3.53;;
17967;SDS011;9109;48.050;11.696;2023-02-11T07:13:20;12.87;;;3.77;;
17967;SDS011;9109;48.050;11.696;2023-02-11T07:16:22;11.90;;;4.23;;
17967;SDS011;9109;48.050;11.696;2023-02-11T07:19:25;12.03;;;3.80;;
17967;SDS011;9109;48.050;11.696;2023-02-11T07:22:27;9.23;;;3.83;;
17967;SDS011;9109;48.050;11.696;2023-02-11T07:25:29;8.40;;;4.10;;
17967;SDS011;9109;48.050;11.696;2023-02-11T07:28:31;8.03;;;3.87;;
17967;SDS011;9109;48.050;11.696;2023-02-11T07:31:35;14.73;;;4.20;;
17967;SDS011;9109;48.050;11.696;2023-02-11T07:34:38;8.80;;;3.43;;
17967;SDS011;9109;48.050;11.696;2023-02-11T07:37:40;11.80;;;3.80;;
17967;SDS011;9109;48.050;11.696;2023-02-11T07:40:42;10.53;;;3.60;;
17967;SDS011;9109;48.050;11.696;2023-02-11T07:43:44;8.27;;;3.27;;
17967;SDS011;9109;48.050;11.696;2023-02-11T07:46:46;9.40;;;3.87;;
17967;SDS011;9109;48.050;11.696;2023-02-11T07:49:50;8.23;;;3.57;;
17967;SDS011;9109;48.050;11.696;2023-02-11T07:52:52;6.77;;;3.40;;
17967;SDS011;9109;48.050;11.696;2023-02-11T07:55:54;10.10;;;4.07;;
17967;SDS011;9109;48.050;11.696;2023-02-11T07:58:58;5.77;;;3.13;;
17967;SDS011;9109;48.050;11.696;2023-02-11T08:02:02;7.47;;;3.53;;
17967;SDS011;9109;48.050;11.696;2023-02-11T08:05:06;7.30;;;3.27;;
17967;SDS011;9109;48.050;11.696;2023-02-11T08:08:08;11.77;;;3.47;;
17967;SDS011;9109;48.050;11.696;2023-02-11T08:11:10;19.33;;;3.53;;
17967;SDS011;9109;48.050;11.696;2023-02-11T08:14:15;11.80;;;3.87;;
17967;SDS011;9109;48.050;11.696;2023-02-11T08:17:17;8.57;;;3.77;;
17967;SDS011;9109;48.050;11.696;2023-02-11T08:20:20;9.60;;;4.23;;
17967;SDS011;9109;48.050;11.696;2023-02-11T08:23:22;11.13;;;4.17;;
17967;SDS011;9109;48.050;11.696;2023-02-11T08:26:25;9.77;;;4.53;;
17967;SDS011;9109;48.050;11.696;2023-02-11T08:29:28;12.33;;;3.80;;
17967;SDS011;9109;48.050;11.696;2023-02-11T08:32:30;10.33;;;5.07;;
17967;SDS011;9109;48.050;11.696;2023-02-11T08:35:36;11.67;;;4.43;;
17967;SDS011;9109;48.050;11.696;2023-02-11T08:38:41;11.30;;;4.50;;
17967;SDS011;9109;48.050;11.696;2023-02-11T08:41:44;10.93;;;4.50;;
17967;SDS011;9109;48.050;11.696;2023-02-11T08:44:47;14.87;;;4.93;;
17967;SDS011;9109;48.050;11.696;2023-02-11T08:47:49;10.10;;;4.43;;
17967;SDS011;9109;48.050;11.696;2023-02-11T08:50:53;13.47;;;5.23;;
17967;SDS011;9109;48.050;11.696;2023-02-11T08:53:55;11.67;;;5.20;;
17967;SDS011;9109;48.050;11.696;2023-02-11T08:56:57;11.70;;;5.40;;
17967;SDS011;9109;48.050;11.696;2023-02-11T09:00:01;15.50;;;5.60;;
17967;SDS011;9109;48.050;11.696;2023-02-11T09:03:03;14.03;;;5.93;;
17967;SDS011;9109;48.050;11.696;2023-02-11T09:06:12;13.10;;;5.10;;
17967;SDS011;9109;48.050;11.696;2023-02-11T09:09:16;25.73;;;5.10;;
17967;SDS011;9109;48.050;11.696;2023-02-11T09:12:19;19.73;;;4.93;;
17967;SDS011;9109;48.050;11.696;2023-02-11T09:15:21;14.80;;;5.03;;
17967;SDS011;9109;48.050;11.696;2023-02-11T09:18:23;18.97;;;5.13;;
17967;SDS011;9109;48.050;11.696;2023-02-11T09:21:26;12.00;;;4.63;;
17967;SDS011;9109;48.050;11.696;2023-02-11T09:24:29;35.23;;;5.40;;
17967;SDS011;9109;48.050;11.696;2023-02-11T09:27:31;19.70;;;5.00;;
17967;SDS011;9109;48.050;11.696;2023-02-11T09:30:32;18.43;;;5.37;;
17967;SDS011;9109;48.050;11.696;2023-02-11T09:33:36;7.60;;;3.63;;
17967;SDS011;9109;48.050;11.696;2023-02-11T09:36:48;10.03;;;4.30;;
17967;SDS011;9109;48.050;11.696;2023-02-11T09:39:50;23.60;;;4.63;;
17967;SDS011;9109;48.050;11.696;2023-02-11T09:42:52;9.63;;;4.77;;
17967;SDS011;9109;48.050;11.696;2023-02-11T09:46:08;13.93;;;4.33;;
17967;SDS011;9109;48.050;11.696;2023-02-11T09:49:16;16.90;;;4.37;;
17967;SDS011;9109;48.050;11.696;2023-02-11T09:52:29;12.27;;;4.53;;
17967;SDS011;9109;48.050;11.696;2023-02-11T09:55:38;11.90;;;4.93;;
17967;SDS011;9109;48.050;11.696;2023-02-11T09:58:42;12.13;;;5.00;;
17967;SDS011;9109;48.050;11.696;2023-02-11T10:01:47;16.80;;;5.57;;
17967;SDS011;9109;48.050;11.696;2023-02-11T10:05:01;13.17;;;4.47;;
17967;SDS011;9109;48.050;11.696;2023-02-11T10:08:25;16.40;;;5.07;;
17967;SDS011;9109;48.050;11.696;2023-02-11T10:12:02;9.60;;;5.13;;
17967;SDS011;9109;48.050;11.696;2023-02-11T10:15:23;18.13;;;5.60;;
17967;SDS011;9109;48.050;11.696;2023-02-11T10:18:41;11.50;;;5.30;;
17967;SDS011;9109;48.050;11.696;2023-02-11T10:22:02;20.30;;;5.80;;
17967;SDS011;9109;48.050;11.696;2023-02-11T10:25:16;21.60;;;5.37;;
17967;SDS011;9109;48.050;11.696;2023-02-11T10:28:25;14.30;;;5.13;;
17967;SDS011;9109;48.050;11.696;2023-02-11T10:31:33;18.90;;;6.67;;
17967;SDS011;9109;48.050;11.696;2023-02-11T10:34:54;24.60;;;6.50;;
17967;SDS011;9109;48.050;11.696;2023-02-11T10:38:04;16.83;;;7.03;;
17967;SDS011;9109;48.050;11.696;2023-02-11T10:41:09;16.57;;;7.17;;
17967;SDS011;9109;48.050;11.696;2023-02-11T10:44:22;20.80;;;6.53;;
17967;SDS011;9109;48.050;11.696;2023-02-11T10:47:33;19.40;;;7.23;;
17967;SDS011;9109;48.050;11.696;2023-02-11T10:50:38;16.23;;;6.20;;
17967;SDS011;9109;48.050;11.696;2023-02-11T10:53:40;18.50;;;6.67;;
17967;SDS011;9109;48.050;11.696;2023-02-11T10:56:44;20.43;;;7.37;;
17967;SDS011;9109;48.050;11.696;2023-02-11T10:59:49;16.80;;;5.83;;
17967;SDS011;9109;48.050;11.696;2023-02-11T11:03:02;15.80;;;6.73;;
17967;SDS011;9109;48.050;11.696;2023-02-11T11:06:07;14.50;;;6.07;;
17967;SDS011;9109;48.050;11.696;2023-02-11T11:09:10;13.47;;;5.50;;
17967;SDS011;9109;48.050;11.696;2023-02-11T11:12:37;14.37;;;5.90;;
17967;SDS011;9109;48.050;11.696;2023-02-11T11:15:48;16.23;;;5.63;;
17967;SDS011;9109;48.050;11.696;2023-02-11T11:19:19;14.83;;;5.13;;
17967;SDS011;9109;48.050;11.696;2023-02-11T11:22:22;18.40;;;6.03;;
17967;SDS011;9109;48.050;11.696;2023-02-11T11:25:24;19.33;;;5.73;;
17967;SDS011;9109;48.050;11.696;2023-02-11T11:28:30;13.47;;;5.70;;
17967;SDS011;9109;48.050;11.696;2023-02-11T11:31:44;11.93;;;5.50;;
17967;SDS011;9109;48.050;11.696;2023-02-11T11:34:49;25.93;;;5.40;;
17967;SDS011;9109;48.050;11.696;2023-02-11T11:37:53;13.70;;;5.90;;
17967;SDS011;9109;48.050;11.696;2023-02-11T11:44:25;11.53;;;5.50;;
17967;SDS011;9109;48.050;11.696;2023-02-11T11:47:31;17.97;;;5.23;;
17967;SDS011;9109;48.050;11.696;2023-02-11T11:50:40;11.37;;;5.33;;
17967;SDS011;9109;48.050;11.696;2023-02-11T11:53:47;15.40;;;6.07;;
17967;SDS011;9109;48.050;11.696;2023-02-11T11:56:58;17.07;;;6.03;;
17967;SDS011;9109;48.050;11.696;2023-02-11T12:00:05;13.33;;;5.37;;
17967;SDS011;9109;48.050;11.696;2023-02-11T12:03:20;17.73;;;5.37;;
17967;SDS011;9109;48.050;11.696;2023-02-11T12:06:42;10.97;;;4.90;;
17967;SDS011;9109;48.050;11.696;2023-02-11T12:09:59;15.13;;;5.73;;
17967;SDS011;9109;48.050;11.696;2023-02-11T12:13:26;13.03;;;4.70;;
17967;SDS011;9109;48.050;11.696;2023-02-11T12:16:43;17.83;;;5.23;;
17967;SDS011;9109;48.050;11.696;2023-02-11T12:19:54;18.17;;;4.93;;
17967;SDS011;9109;48.050;11.696;2023-02-11T12:23:27;18.93;;;5.37;;
17967;SDS011;9109;48.050;11.696;2023-02-11T12:26:41;13.57;;;5.00;;
17967;SDS011;9109;48.050;11.696;2023-02-11T12:29:51;14.17;;;6.00;;
17967;SDS011;9109;48.050;11.696;2023-02-11T12:33:04;14.47;;;5.90;;
17967;SDS011;9109;48.050;11.696;2023-02-11T12:36:16;13.73;;;5.67;;
17967;SDS011;9109;48.050;11.696;2023-02-11T12:39:32;13.40;;;4.97;;
17967;SDS011;9109;48.050;11.696;2023-02-11T12:42:45;13.87;;;4.60;;
17967;SDS011;9109;48.050;11.696;2023-02-11T12:46:32;13.80;;;5.40;;
17967;SDS011;9109;48.050;11.696;2023-02-11T12:49:46;14.33;;;4.93;;
17967;SDS011;9109;48.050;11.696;2023-02-11T12:53:09;13.87;;;5.07;;
17967;SDS011;9109;48.050;11.696;2023-02-11T12:56:23;18.23;;;5.50;;
17967;SDS011;9109;48.050;11.696;2023-02-11T12:59:33;13.03;;;4.60;;
17967;SDS011;9109;48.050;11.696;2023-02-11T13:02:43;13.70;;;5.13;;
17967;SDS011;9109;48.050;11.696;2023-02-11T13:05:52;17.43;;;5.03;;
17967;SDS011;9109;48.050;11.696;2023-02-11T13:08:57;12.30;;;4.33;;
17967;SDS011;9109;48.050;11.696;2023-02-11T13:12:01;12.90;;;5.40;;
17967;SDS011;9109;48.050;11.696;2023-02-11T13:15:26;9.63;;;4.27;;
17967;SDS011;9109;48.050;11.696;2023-02-11T13:18:31;11.60;;;4.13;;
17967;SDS011;9109;48.050;11.696;2023-02-11T13:25:18;9.77;;;3.77;;
17967;SDS011;9109;48.050;11.696;2023-02-11T13:28:31;12.23;;;4.40;;
17967;SDS011;9109;48.050;11.696;2023-02-11T13:31:40;10.43;;;4.43;;
17967;SDS011;9109;48.050;11.696;2023-02-11T13:34:55;18.17;;;4.20;;
17967;SDS011;9109;48.050;11.696;2023-02-11T13:38:00;13.13;;;4.67;;
17967;SDS011;9109;48.050;11.696;2023-02-11T13:41:05;8.37;;;3.80;;
17967;SDS011;9109;48.050;11.696;2023-02-11T13:44:21;9.00;;;4.10;;
17967;SDS011;9109;48.050;11.696;2023-02-11T13:47:28;15.13;;;4.30;;
17967;SDS011;9109;48.050;11.696;2023-02-11T13:50:34;12.00;;;4.77;;
17967;SDS011;9109;48.050;11.696;2023-02-11T13:53:44;9.23;;;4.10;;
17967;SDS011;9109;48.050;11.696;2023-02-11T14:04:04;13.50;;;4.53;;
17967;SDS011;9109;48.050;11.696;2023-02-11T14:07:35;12.93;;;4.30;;
17967;SDS011;9109;48.050;11.696;2023-02-11T14:14:57;11.27;;;4.17;;
17967;SDS011;9109;48.050;11.696;2023-02-11T14:21:37;9.47;;;4.30;;
17967;SDS011;9109;48.050;11.696;2023-02-11T14:24:46;12.30;;;4.37;;
17967;SDS011;9109;48.050;11.696;2023-02-11T14:27:52;11.03;;;4.57;;
17967;SDS011;9109;48.050;11.696;2023-02-11T14:31:01;11.33;;;4.60;;
17967;SDS011;9109;48.050;11.696;2023-02-11T14:34:23;10.07;;;4.53;;
17967;SDS011;9109;48.050;11.696;2023-02-11T14:37:41;13.27;;;5.17;;
17967;SDS011;9109;48.050;11.696;2023-02-11T14:40:48;14.03;;;5.67;;
17967;SDS011;9109;48.050;11.696;2023-02-11T14:43:57;11.87;;;4.70;;
17967;SDS011;9109;48.050;11.696;2023-02-11T14:47:01;12.27;;;5.60;;
17967;SDS011;9109;48.050;11.696;2023-02-11T14:50:04;18.53;;;6.00;;
17967;SDS011;9109;48.050;11.696;2023-02-11T14:53:10;11.63;;;5.13;;
17967;SDS011;9109;48.050;11.696;2023-02-11T14:56:16;14.40;;;6.10;;
17967;SDS011;9109;48.050;11.696;2023-02-11T14:59:25;17.90;;;5.80;;
17967;SDS011;9109;48.050;11.696;2023-02-11T15:02:27;24.43;;;6.07;;
17967;SDS011;9109;48.050;11.696;2023-02-11T15:05:33;15.83;;;5.83;;
17967;SDS011;9109;48.050;11.696;2023-02-11T15:08:36;16.20;;;5.63;;
17967;SDS011;9109;48.050;11.696;2023-02-11T15:11:43;12.17;;;5.83;;
17967;SDS011;9109;48.050;11.696;2023-02-11T15:14:49;15.43;;;6.20;;
17967;SDS011;9109;48.050;11.696;2023-02-11T15:17:54;24.00;;;5.77;;
17967;SDS011;9109;48.050;11.696;2023-02-11T15:20:58;12.67;;;5.37;;
17967;SDS011;9109;48.050;11.696;2023-02-11T15:24:01;18.17;;;5.80;;
17967;SDS011;9109;48.050;11.696;2023-02-11T15:27:10;15.17;;;6.23;;
17967;SDS011;9109;48.050;11.696;2023-02-11T15:30:26;18.80;;;6.30;;
17967;SDS011;9109;48.050;11.696;2023-02-11T15:33:30;19.00;;;8.00;;
17967;SDS011;9109;48.050;11.696;2023-02-11T15:36:32;16.83;;;6.53;;
17967;SDS011;9109;48.050;11.696;2023-02-11T15:39:35;23.87;;;7.03;;
17967;SDS011;9109;48.050;11.696;2023-02-11T15:42:40;19.53;;;7.17;;
17967;SDS011;9109;48.050;11.696;2023-02-11T15:45:55;19.70;;;7.20;;
17967;SDS011;9109;48.050;11.696;2023-02-11T15:49:00;18.60;;;7.47;;
17967;SDS011;9109;48.050;11.696;2023-02-11T15:52:02;21.90;;;7.30;;
17967;SDS011;9109;48.050;11.696;2023-02-11T15:55:05;16.93;;;7.27;;
17967;SDS011;9109;48.050;11.696;2023-02-11T15:58:12;25.33;;;7.90;;
17967;SDS011;9109;48.050;11.696;2023-02-11T16:01:16;20.77;;;8.27;;
17967;SDS011;9109;48.050;11.696;2023-02-11T16:04:19;23.77;;;8.10;;
17967;SDS011;9109;48.050;11.696;2023-02-11T16:07:36;20.83;;;8.63;;
17967;SDS011;9109;48.050;11.696;2023-02-11T16:10:40;21.40;;;8.67;;
17967;SDS011;9109;48.050;11.696;2023-02-11T16:13:57;22.20;;;8.23;;
17967;SDS011;9109;48.050;11.696;2023-02-11T16:17:03;22.13;;;9.17;;
17967;SDS011;9109;48.050;11.696;2023-02-11T16:20:15;23.17;;;9.53;;
17967;SDS011;9109;48.050;11.696;2023-02-11T16:23:20;24.37;;;9.97;;
17967;SDS011;9109;48.050;11.696;2023-02-11T16:26:26;27.37;;;10.63;;
17967;SDS011;9109;48.050;11.696;2023-02-11T16:29:31;37.33;;;10.97;;
17967;SDS011;9109;48.050;11.696;2023-02-11T16:32:36;31.03;;;14.40;;
17967;SDS011;9109;48.050;11.696;2023-02-11T16:35:38;29.10;;;10.80;;
17967;SDS011;9109;48.050;11.696;2023-02-11T16:38:43;28.90;;;11.33;;
17967;SDS011;9109;48.050;11.696;2023-02-11T16:41:45;27.50;;;11.33;;
17967;SDS011;9109;48.050;11.696;2023-02-11T16:44:49;26.30;;;10.27;;
17967;SDS011;9109;48.050;11.696;2023-02-11T16:47:52;27.33;;;10.43;;
17967;SDS011;9109;48.050;11.696;2023-02-11T16:50:54;27.20;;;10.57;;
17967;SDS011;9109;48.050;11.696;2023-02-11T16:53:56;33.33;;;12.63;;
17967;SDS011;9109;48.050;11.696;2023-02-11T16:56:58;30.70;;;12.20;;
17967;SDS011;9109;48.050;11.696;2023-02-11T17:00:00;29.63;;;11.43;;
17967;SDS011;9109;48.050;11.696;2023-02-11T17:03:04;28.70;;;11.53;;
17967;SDS011;9109;48.050;11.696;2023-02-11T17:06:08;32.83;;;11.63;;
17967;SDS011;9109;48.050;11.696;2023-02-11T17:09:13;37.20;;;11.57;;
17967;SDS011;9109;48.050;11.696;2023-02-11T17:12:19;36.23;;;11.43;;
17967;SDS011;9109;48.050;11.696;2023-02-11T17:15:21;32.50;;;10.70;;
17967;SDS011;9109;48.050;11.696;2023-02-11T17:18:24;27.67;;;10.57;;
17967;SDS011;9109;48.050;11.696;2023-02-11T17:21:26;33.90;;;11.10;;
17967;SDS011;9109;48.050;11.696;2023-02-11T17:24:30;34.13;;;11.33;;
17967;SDS011;9109;48.050;11.696;2023-02-11T17:27:32;26.83;;;10.53;;
17967;SDS011;9109;48.050;11.696;2023-02-11T17:30:34;30.27;;;12.23;;
17967;SDS011;9109;48.050;11.696;2023-02-11T17:33:37;30.57;;;11.30;;
17967;SDS011;9109;48.050;11.696;2023-02-11T17:36:39;34.83;;;10.77;;
17967;SDS011;9109;48.050;11.696;2023-02-11T17:39:41;27.33;;;10.30;;
17967;SDS011;9109;48.050;11.696;2023-02-11T17:42:43;27.53;;;10.27;;
17967;SDS011;9109;48.050;11.696;2023-02-11T17:45:45;32.40;;;12.43;;
17967;SDS011;9109;48.050;11.696;2023-02-11T17:48:48;30.73;;;10.30;;
17967;SDS011;9109;48.050;11.696;2023-02-11T17:51:51;25.47;;;9.97;;
17967;SDS011;9109;48.050;11.696;2023-02-11T17:54:53;27.67;;;8.93;;
17967;SDS011;9109;48.050;11.696;2023-02-11T17:57:57;30.87;;;9.53;;
17967;SDS011;9109;48.050;11.696;2023-02-11T18:00:58;19.90;;;8.73;;
17967;SDS011;9109;48.050;11.696;2023-02-11T18:04:02;27.97;;;8.90;;
17967;SDS011;9109;48.050;11.696;2023-02-11T18:07:05;23.53;;;9.33;;
17967;SDS011;9109;48.050;11.696;2023-02-11T18:10:07;22.83;;;9.10;;
17967;SDS011;9109;48.050;11.696;2023-02-11T18:13:10;31.30;;;10.83;;
17967;SDS011;9109;48.050;11.696;2023-02-11T18:16:12;30.67;;;10.83;;
17967;SDS011;9109;48.050;11.696;2023-02-11T18:19:16;23.63;;;8.90;;
17967;SDS011;9109;48.050;11.696;2023-02-11T18:22:18;23.03;;;9.73;;
17967;SDS011;9109;48.050;11.696;2023-02-11T18:25:20;29.23;;;10.60;;
17967;SDS011;9109;48.050;11.696;2023-02-11T18:28:22;29.33;;;10.97;;
17967;SDS011;9109;48.050;11.696;2023-02-11T18:31:24;30.80;;;10.97;;
17967;SDS011;9109;48.050;11.696;2023-02-11T18:34:28;28.50;;;9.70;;
17967;SDS011;9109;48.050;11.696;2023-02-11T18:37:30;27.10;;;11.07;;
17967;SDS011;9109;48.050;11.696;2023-02-11T18:40:32;29.83;;;11.30;;
17967;SDS011;9109;48.050;11.696;2023-02-11T18:43:34;40.33;;;11.30;;
17967;SDS011;9109;48.050;11.696;2023-02-11T18:46:36;34.73;;;12.43;;
17967;SDS011;9109;48.050;11.696;2023-02-11T18:49:40;36.27;;;12.17;;
17967;SDS011;9109;48.050;11.696;2023-02-11T18:52:41;23.47;;;10.20;;
17967;SDS011;9109;48.050;11.696;2023-02-11T18:55:43;30.73;;;12.03;;
17967;SDS011;9109;48.050;11.696;2023-02-11T18:58:46;30.90;;;11.47;;
17967;SDS011;9109;48.050;11.696;2023-02-11T19:01:48;27.07;;;10.77;;
17967;SDS011;9109;48.050;11.696;2023-02-11T19:04:52;31.87;;;11.17;;
17967;SDS011;9109;48.050;11.696;2023-02-11T19:07:55;35.83;;;12.63;;
17967;SDS011;9109;48.050;11.696;2023-02-11T19:10:57;38.77;;;13.53;;
17967;SDS011;9109;48.050;11.696;2023-02-11T19:13:59;32.67;;;11.77;;
17967;SDS011;9109;48.050;11.696;2023-02-11T19:17:02;33.47;;;12.13;;
17967;SDS011;9109;48.050;11.696;2023-02-11T19:20:07;33.97;;;11.30;;
17967;SDS011;9109;48.050;11.696;2023-02-11T19:23:10;32.97;;;11.90;;
17967;SDS011;9109;48.050;11.696;2023-02-11T19:26:11;36.17;;;11.43;;
17967;SDS011;9109;48.050;11.696;2023-02-11T19:29:13;29.60;;;11.57;;
17967;SDS011;9109;48.050;11.696;2023-02-11T19:32:16;29.70;;;10.60;;
17967;SDS011;9109;48.050;11.696;2023-02-11T19:35:19;23.83;;;9.77;;
17967;SDS011;9109;48.050;11.696;2023-02-11T19:38:21;26.93;;;9.90;;
17967;SDS011;9109;48.050;11.696;2023-02-11T19:41:23;27.33;;;9.63;;
17967;SDS011;9109;48.050;11.696;2023-02-11T19:44:25;23.90;;;9.30;;
17967;SDS011;9109;48.050;11.696;2023-02-11T19:47:27;26.87;;;10.50;;
17967;SDS011;9109;48.050;11.696;2023-02-11T19:50:30;24.80;;;9.43;;
17967;SDS011;9109;48.050;11.696;2023-02-11T19:53:32;23.60;;;9.73;;
17967;SDS011;9109;48.050;11.696;2023-02-11T19:56:34;22.60;;;8.90;;
17967;SDS011;9109;48.050;11.696;2023-02-11T19:59:36;30.00;;;11.13;;
17967;SDS011;9109;48.050;11.696;2023-02-11T20:02:39;27.33;;;10.67;;
17967;SDS011;9109;48.050;11.696;2023-02-11T20:05:42;26.23;;;9.43;;
17967;SDS011;9109;48.050;11.696;2023-02-11T20:08:46;23.23;;;9.67;;
17967;SDS011;9109;48.050;11.696;2023-02-11T20:11:48;26.50;;;9.67;;
17967;SDS011;9109;48.050;11.696;2023-02-11T20:14:50;26.87;;;10.17;;
17967;SDS011;9109;48.050;11.696;2023-02-11T20:17:52;23.63;;;9.60;;
17967;SDS011;9109;48.050;11.696;2023-02-11T20:20:55;24.03;;;9.83;;
17967;SDS011;9109;48.050;11.696;2023-02-11T20:24:01;27.30;;;10.60;;
17967;SDS011;9109;48.050;11.696;2023-02-11T20:27:03;26.10;;;9.37;;
17967;SDS011;9109;48.050;11.696;2023-02-11T20:30:07;26.03;;;9.77;;
17967;SDS011;9109;48.050;11.696;2023-02-11T20:33:10;25.03;;;11.00;;
17967;SDS011;9109;48.050;11.696;2023-02-11T20:36:14;23.03;;;9.63;;
17967;SDS011;9109;48.050;11.696;2023-02-11T20:39:17;26.60;;;10.53;;
17967;SDS011;9109;48.050;11.696;2023-02-11T20:42:21;27.27;;;11.77;;
17967;SDS011;9109;48.050;11.696;2023-02-11T20:45:23;29.17;;;11.90;;
17967;SDS011;9109;48.050;11.696;2023-02-11T20:48:25;30.37;;;11.63;;
17967;SDS011;9109;48.050;11.696;2023-02-11T20:51:29;28.13;;;10.17;;
17967;SDS011;9109;48.050;11.696;2023-02-11T20:54:32;25.23;;;10.00;;
17967;SDS011;9109;48.050;11.696;2023-02-11T20:57:34;24.83;;;10.67;;
17967;SDS011;9109;48.050;11.696;2023-02-11T21:00:36;27.60;;;10.87;;
17967;SDS011;9109;48.050;11.696;2023-02-11T21:03:38;30.77;;;11.40;;
17967;SDS011;9109;48.050;11.696;2023-02-11T21:06:44;30.80;;;11.23;;
17967;SDS011;9109;48.050;11.696;2023-02-11T21:09:47;29.20;;;12.10;;
17967;SDS011;9109;48.050;11.696;2023-02-11T21:12:49;27.63;;;12.47;;
17967;SDS011;9109;48.050;11.696;2023-02-11T21:15:51;30.30;;;12.73;;
17967;SDS011;9109;48.050;11.696;2023-02-11T21:18:55;39.07;;;13.67;;
17967;SDS011;9109;48.050;11.696;2023-02-11T21:21:58;31.83;;;13.67;;
17967;SDS011;9109;48.050;11.696;2023-02-11T21:25:00;42.27;;;15.63;;
17967;SDS011;9109;48.050;11.696;2023-02-11T21:28:05;36.73;;;14.90;;
17967;SDS011;9109;48.050;11.696;2023-02-11T21:31:07;30.07;;;12.57;;
17967;SDS011;9109;48.050;11.696;2023-02-11T21:34:09;27.30;;;12.43;;
17967;SDS011;9109;48.050;11.696;2023-02-11T21:37:12;28.30;;;12.23;;
17967;SDS011;9109;48.050;11.696;2023-02-11T21:40:14;31.43;;;13.07;;
17967;SDS011;9109;48.050;11.696;2023-02-11T21:43:16;31.40;;;12.47;;
17967;SDS011;9109;48.050;11.696;2023-02-11T21:46:19;28.43;;;12.50;;
17967;SDS011;9109;48.050;11.696;2023-02-11T21:49:21;29.17;;;12.47;;
17967;SDS011;9109;48.050;11.696;2023-02-11T21:52:25;27.90;;;10.80;;
17967;SDS011;9109;48.050;11.696;2023-02-11T21:55:26;26.00;;;10.03;;
17967;SDS011;9109;48.050;11.696;2023-02-11T21:58:30;20.80;;;10.03;;
17967;SDS011;9109;48.050;11.696;2023-02-11T22:01:32;27.80;;;10.83;;
17967;SDS011;9109;48.050;11.696;2023-02-11T22:04:35;24.67;;;10.57;;
17967;SDS011;9109;48.050;11.696;2023-02-11T22:07:39;22.73;;;10.40;;
17967;SDS011;9109;48.050;11.696;2023-02-11T22:10:41;25.07;;;9.93;;
17967;SDS011;9109;48.050;11.696;2023-02-11T22:13:43;29.07;;;11.23;;
17967;SDS011;9109;48.050;11.696;2023-02-11T22:16:45;29.13;;;11.97;;
17967;SDS011;9109;48.050;11.696;2023-02-11T22:19:48;24.03;;;10.93;;
17967;SDS011;9109;48.050;11.696;2023-02-11T22:22:51;24.37;;;10.87;;
17967;SDS011;9109;48.050;11.696;2023-02-11T22:25:53;28.20;;;10.57;;
17967;SDS011;9109;48.050;11.696;2023-02-11T22:28:55;23.97;;;11.10;;
17967;SDS011;9109;48.050;11.696;2023-02-11T22:31:57;25.90;;;11.20;;
17967;SDS011;9109;48.050;11.696;2023-02-11T22:34:59;24.80;;;11.10;;
17967;SDS011;9109;48.050;11.696;2023-02-11T22:38:03;26.97;;;11.57;;
17967;SDS011;9109;48.050;11.696;2023-02-11T22:41:06;27.37;;;11.60;;
17967;SDS011;9109;48.050;11.696;2023-02-11T22:44:10;27.43;;;11.43;;
17967;SDS011;9109;48.050;11.696;2023-02-11T22:47:12;26.33;;;10.33;;
17967;SDS011;9109;48.050;11.696;2023-02-11T22:50:14;24.83;;;10.97;;
17967;SDS011;9109;48.050;11.696;2023-02-11T22:53:17;35.27;;;12.53;;
17967;SDS011;9109;48.050;11.696;2023-02-11T22:56:19;33.27;;;12.27;;
17967;SDS011;9109;48.050;11.696;2023-02-11T22:59:21;28.17;;;10.40;;
17967;SDS011;9109;48.050;11.696;2023-02-11T23:02:23;19.97;;;9.97;;
17967;SDS011;9109;48.050;11.696;2023-02-11T23:05:25;26.70;;;11.60;;
17967;SDS011;9109;48.050;11.696;2023-02-11T23:08:29;24.47;;;10.73;;
17967;SDS011;9109;48.050;11.696;2023-02-11T23:11:33;25.57;;;10.80;;
17967;SDS011;9109;48.050;11.696;2023-02-11T23:14:35;27.43;;;12.13;;
17967;SDS011;9109;48.050;11.696;2023-02-11T23:17:37;21.67;;;9.90;;
17967;SDS011;9109;48.050;11.696;2023-02-11T23:20:40;27.33;;;11.50;;
17967;SDS011;9109;48.050;11.696;2023-02-11T23:23:44;28.80;;;9.67;;
17967;SDS011;9109;48.050;11.696;2023-02-11T23:26:47;23.37;;;10.27;;